createdAt,value
2018-03-16T00:01:34.320Z,2.20
2018-03-16T00:04:09.420Z,2.20
2018-03-16T00:06:44.177Z,2.10
2018-03-16T00:09:18.719Z,2.10
2018-03-16T00:11:53.417Z,2.20
2018-03-16T00:14:28.761Z,2.10
2018-03-16T00:17:03.517Z,2.10
2018-03-16T00:19:37.948Z,2.10
2018-03-16T00:25:18.085Z,2.10
2018-03-16T00:27:52.501Z,2.20
2018-03-16T00:30:27.038Z,2.10
2018-03-16T00:33:01.585Z,2.10
2018-03-16T00:35:36.624Z,2.10
2018-03-16T00:38:11.429Z,2.10
2018-03-16T00:40:45.709Z,2.10
2018-03-16T00:43:20.281Z,2.10
2018-03-16T00:45:54.693Z,2.10
2018-03-16T00:48:29.305Z,2.10
2018-03-16T00:51:04.284Z,2.00
2018-03-16T00:53:39.786Z,2.00
2018-03-16T00:56:14.407Z,2.00
2018-03-16T00:58:49.864Z,2.00
2018-03-16T01:01:24.493Z,2.00
2018-03-16T01:03:59.117Z,2.10
2018-03-16T01:06:34.248Z,2.10
2018-03-16T01:09:08.892Z,2.10
2018-03-16T01:11:43.658Z,2.00
2018-03-16T01:14:18.429Z,2.00
2018-03-16T01:16:52.698Z,2.00
2018-03-16T01:19:27.275Z,2.00
2018-03-16T01:22:01.606Z,2.00
2018-03-16T01:24:36.524Z,2.10
2018-03-16T01:27:11.053Z,2.10
2018-03-16T01:29:46.184Z,2.10
2018-03-16T01:32:20.610Z,2.10
2018-03-16T01:34:56.873Z,2.10
2018-03-16T01:37:31.476Z,2.10
2018-03-16T01:40:06.125Z,2.10
2018-03-16T01:42:40.756Z,2.10
2018-03-16T01:45:15.376Z,2.10
2018-03-16T01:47:49.885Z,2.00
2018-03-16T01:50:24.625Z,2.00
2018-03-16T01:53:17.027Z,2.00
2018-03-16T01:55:51.658Z,2.00
2018-03-16T01:58:26.113Z,2.00
2018-03-16T02:01:00.748Z,2.00
2018-03-16T02:03:35.193Z,2.00
2018-03-16T02:06:09.793Z,1.90
2018-03-16T02:08:44.665Z,1.90
2018-03-16T02:11:19.045Z,2.00
2018-03-16T02:13:54.272Z,1.90
2018-03-16T02:16:29.555Z,1.90
2018-03-16T02:19:04.033Z,2.00
2018-03-16T02:21:39.005Z,2.00
2018-03-16T02:24:13.446Z,2.00
2018-03-16T02:26:48.034Z,1.90
2018-03-16T02:29:22.422Z,1.90
2018-03-16T02:31:57.067Z,1.90
2018-03-16T02:34:31.445Z,1.90
2018-03-16T02:37:06.115Z,1.90
2018-03-16T02:39:40.573Z,1.90
2018-03-16T02:42:14.958Z,1.80
2018-03-16T02:44:49.406Z,1.80
2018-03-16T02:47:24.838Z,1.80
2018-03-16T02:50:00.463Z,1.80
2018-03-16T02:52:35.293Z,1.80
2018-03-16T02:55:09.716Z,1.70
2018-03-16T02:57:44.331Z,1.70
2018-03-16T03:00:20.683Z,1.70
2018-03-16T03:02:56.067Z,1.70
2018-03-16T03:05:31.652Z,1.70
2018-03-16T03:08:06.532Z,1.70
2018-03-16T03:10:40.858Z,1.70
2018-03-16T03:13:15.375Z,1.70
2018-03-16T03:15:49.868Z,1.60
2018-03-16T03:18:24.644Z,1.60
2018-03-16T03:20:59.170Z,1.60
2018-03-16T03:23:34.695Z,1.50
2018-03-16T03:26:09.308Z,1.50
2018-03-16T03:28:43.712Z,1.50
2018-03-16T03:31:18.132Z,1.50
2018-03-16T03:33:53.812Z,1.40
2018-03-16T03:36:28.207Z,1.30
2018-03-16T03:39:02.753Z,1.30
2018-03-16T03:41:37.932Z,1.30
2018-03-16T03:44:12.772Z,1.30
2018-03-16T03:46:47.320Z,1.20
2018-03-16T03:49:21.980Z,1.20
2018-03-16T03:51:56.259Z,1.20
2018-03-16T03:54:31.024Z,1.20
2018-03-16T03:57:05.468Z,1.20
2018-03-16T03:59:39.973Z,1.10
2018-03-16T04:02:14.516Z,1.10
2018-03-16T04:04:49.727Z,1.10
2018-03-16T04:07:24.176Z,1.00
2018-03-16T04:09:58.772Z,1.10
2018-03-16T04:12:33.102Z,1.00
2018-03-16T04:15:08.436Z,1.10
2018-03-16T04:17:42.899Z,1.00
2018-03-16T04:20:17.700Z,1.10
2018-03-16T04:22:52.287Z,1.00
2018-03-16T04:25:27.555Z,1.00
2018-03-16T04:28:02.087Z,1.00
2018-03-16T04:30:36.600Z,1.00
2018-03-16T04:33:10.899Z,1.00
2018-03-16T04:35:45.447Z,1.00
2018-03-16T04:38:19.943Z,1.00
2018-03-16T04:40:54.479Z,0.90
2018-03-16T04:43:28.885Z,0.90
2018-03-16T04:46:03.736Z,0.90
2018-03-16T04:48:38.207Z,0.90
2018-03-16T04:51:12.982Z,0.90
2018-03-16T04:53:48.211Z,0.80
2018-03-16T04:56:23.051Z,0.90
2018-03-16T04:58:57.916Z,0.90
2018-03-16T05:01:32.515Z,0.80
2018-03-16T05:04:07.028Z,0.90
2018-03-16T05:06:41.563Z,0.90
2018-03-16T05:09:15.992Z,0.90
2018-03-16T05:11:50.607Z,0.90
2018-03-16T05:14:25.752Z,0.90
2018-03-16T05:17:00.477Z,0.90
2018-03-16T05:19:34.990Z,0.90
2018-03-16T05:22:09.603Z,0.90
2018-03-16T05:24:43.995Z,0.90
2018-03-16T05:27:18.567Z,0.90
2018-03-16T05:29:53.784Z,1.00
2018-03-16T05:32:28.431Z,1.00
2018-03-16T05:35:02.957Z,0.90
2018-03-16T05:37:38.612Z,0.80
2018-03-16T05:40:13.155Z,0.80
2018-03-16T05:42:48.351Z,0.80
2018-03-16T05:45:22.768Z,0.80
2018-03-16T05:47:57.315Z,0.90
2018-03-16T05:50:31.868Z,0.80
2018-03-16T05:53:07.615Z,0.80
2018-03-16T05:55:42.318Z,0.80
2018-03-16T05:58:17.053Z,0.80
2018-03-16T06:00:51.516Z,0.80
2018-03-16T06:03:26.100Z,0.80
2018-03-16T06:06:01.321Z,0.80
2018-03-16T06:08:35.888Z,0.80
2018-03-16T06:11:10.290Z,0.80
2018-03-16T06:13:44.802Z,0.80
2018-03-16T06:16:20.140Z,0.90
2018-03-16T06:18:54.867Z,0.80
2018-03-16T06:21:29.428Z,0.90
2018-03-16T06:24:04.740Z,0.90
2018-03-16T06:26:39.875Z,0.90
2018-03-16T06:29:14.403Z,0.90
2018-03-16T06:31:49.060Z,0.90
2018-03-16T06:34:24.667Z,0.90
2018-03-16T06:36:59.272Z,0.90
2018-03-16T06:39:33.920Z,1.00
2018-03-16T06:42:08.304Z,1.00
2018-03-16T06:44:43.079Z,0.90
2018-03-16T06:47:17.372Z,0.90
2018-03-16T06:49:51.804Z,0.90
2018-03-16T06:52:26.359Z,0.90
2018-03-16T06:55:00.884Z,1.00
2018-03-16T06:57:35.380Z,1.00
2018-03-16T07:00:10.112Z,1.10
2018-03-16T07:02:45.244Z,1.00
2018-03-16T07:05:19.921Z,1.10
2018-03-16T07:07:54.476Z,1.00
2018-03-16T07:10:29.041Z,0.90
2018-03-16T07:13:03.453Z,1.00
2018-03-16T07:15:38.079Z,1.00
2018-03-16T07:18:13.410Z,1.00
2018-03-16T07:20:47.927Z,1.00
2018-03-16T07:23:22.644Z,1.00
2018-03-16T07:25:57.594Z,1.00
2018-03-16T07:28:32.606Z,1.00
2018-03-16T07:31:07.385Z,1.00
2018-03-16T07:33:41.648Z,1.00
2018-03-16T07:36:16.213Z,0.90
2018-03-16T07:38:50.627Z,0.90
2018-03-16T07:41:26.064Z,0.90
2018-03-16T07:44:00.438Z,1.00
2018-03-16T07:46:35.014Z,0.90
2018-03-16T07:49:09.575Z,0.90
2018-03-16T07:51:44.053Z,0.90
2018-03-16T07:54:18.553Z,1.00
2018-03-16T07:56:53.716Z,1.10
2018-03-16T07:59:28.107Z,1.10
2018-03-16T08:02:02.559Z,1.00
2018-03-16T08:04:36.957Z,1.10
2018-03-16T08:07:11.603Z,1.10
2018-03-16T08:09:46.047Z,1.10
2018-03-16T08:12:20.643Z,1.10
2018-03-16T08:14:55.816Z,1.20
2018-03-16T08:17:31.132Z,1.10
2018-03-16T08:20:05.402Z,1.30
2018-03-16T08:22:39.999Z,1.30
2018-03-16T08:25:15.492Z,1.20
2018-03-16T08:27:50.660Z,1.20
2018-03-16T08:30:25.063Z,1.20
2018-03-16T08:32:59.904Z,1.20
2018-03-16T08:35:34.492Z,1.20
2018-03-16T08:38:08.980Z,1.30
2018-03-16T08:40:43.575Z,1.30
2018-03-16T08:43:18.913Z,1.20
2018-03-16T08:45:53.448Z,1.40
2018-03-16T08:48:27.873Z,1.40
2018-03-16T08:51:02.314Z,1.50
2018-03-16T08:53:37.488Z,1.30
2018-03-16T08:56:12.066Z,1.30
2018-03-16T08:58:46.777Z,1.20
2018-03-16T09:01:21.059Z,1.30
2018-03-16T09:03:55.726Z,1.40
2018-03-16T09:06:31.044Z,1.30
2018-03-16T09:09:06.606Z,1.30
2018-03-16T09:11:41.231Z,1.40
2018-03-16T09:14:16.686Z,1.60
2018-03-16T09:16:51.211Z,1.60
2018-03-16T09:19:25.756Z,1.60
2018-03-16T09:22:00.293Z,1.60
2018-03-16T09:24:34.804Z,1.50
2018-03-16T09:27:10.114Z,1.50
2018-03-16T09:29:44.704Z,1.50
2018-03-16T09:32:20.522Z,1.60
2018-03-16T09:34:55.083Z,1.50
2018-03-16T09:37:29.797Z,1.40
2018-03-16T09:40:04.396Z,1.50
2018-03-16T09:42:38.809Z,1.50
2018-03-16T09:45:13.420Z,1.50
2018-03-16T09:47:47.975Z,1.70
2018-03-16T09:50:22.468Z,1.60
2018-03-16T09:52:57.036Z,1.60
2018-03-16T09:55:48.435Z,1.60
2018-03-16T09:58:23.646Z,1.60
2018-03-16T10:00:59.349Z,1.70
2018-03-16T10:03:34.271Z,1.70
2018-03-16T10:06:08.855Z,1.80
2018-03-16T10:08:44.049Z,1.70
2018-03-16T10:11:18.780Z,1.50
2018-03-16T10:13:54.073Z,1.60
2018-03-16T10:16:28.819Z,1.60
2018-03-16T10:19:03.268Z,1.60
2018-03-16T10:21:37.640Z,1.60
2018-03-16T10:24:12.085Z,1.70
2018-03-16T10:26:47.096Z,1.80
2018-03-16T10:29:21.557Z,1.60
2018-03-16T10:31:56.960Z,1.40
2018-03-16T10:34:31.332Z,1.40
2018-03-16T10:37:05.930Z,1.60
2018-03-16T10:39:40.424Z,1.60
2018-03-16T10:42:15.063Z,1.60
2018-03-16T10:44:49.546Z,1.60
2018-03-16T10:47:24.199Z,1.60
2018-03-16T10:49:58.516Z,1.60
2018-03-16T10:52:33.013Z,1.60
2018-03-16T10:55:07.751Z,1.60
2018-03-16T10:57:42.294Z,1.60
2018-03-16T11:00:22.232Z,1.50
2018-03-16T11:03:02.803Z,1.50
2018-03-16T11:05:42.766Z,1.50
2018-03-16T11:08:22.711Z,1.60
2018-03-16T11:10:57.156Z,1.50
2018-03-16T11:13:31.924Z,1.60
2018-03-16T11:16:06.452Z,1.60
2018-03-16T11:18:41.828Z,1.70
2018-03-16T11:21:16.277Z,1.80
2018-03-16T11:23:50.873Z,1.60
2018-03-16T11:26:25.192Z,1.60
2018-03-16T11:28:59.712Z,1.70
2018-03-16T11:31:34.316Z,1.70
2018-03-16T11:34:08.755Z,1.90
2018-03-16T11:36:44.096Z,1.80
2018-03-16T11:39:18.629Z,1.70
2018-03-16T11:41:53.648Z,1.80
2018-03-16T11:44:28.685Z,1.80
2018-03-16T11:47:03.188Z,1.70
2018-03-16T11:49:38.559Z,1.70
2018-03-16T11:52:12.864Z,1.70
2018-03-16T11:54:47.407Z,1.60
2018-03-16T11:57:22.888Z,1.50
2018-03-16T11:59:58.111Z,1.60
2018-03-16T12:02:33.300Z,1.60
2018-03-16T12:05:07.973Z,1.60
2018-03-16T12:07:42.281Z,1.70
2018-03-16T12:10:17.665Z,1.60
2018-03-16T12:12:52.139Z,1.60
2018-03-16T12:15:26.656Z,1.60
2018-03-16T12:18:02.132Z,1.60
2018-03-16T12:20:36.788Z,1.50
2018-03-16T12:23:11.217Z,1.40
2018-03-16T12:25:45.987Z,1.30
2018-03-16T12:28:20.513Z,1.50
2018-03-16T12:30:55.241Z,1.40
2018-03-16T12:33:29.769Z,1.40
2018-03-16T12:36:04.288Z,1.40
2018-03-16T12:38:38.735Z,1.20
2018-03-16T12:41:13.944Z,1.40
2018-03-16T12:43:48.675Z,1.40
2018-03-16T12:46:23.207Z,1.40
2018-03-16T12:48:57.538Z,1.30
2018-03-16T12:51:32.038Z,1.20
2018-03-16T12:54:06.282Z,1.30
2018-03-16T12:56:40.883Z,1.30
2018-03-16T12:59:15.316Z,1.30
2018-03-16T13:01:50.163Z,1.20
2018-03-16T13:04:24.652Z,1.10
2018-03-16T13:06:59.179Z,1.20
2018-03-16T13:09:34.519Z,1.30
2018-03-16T13:12:09.040Z,1.20
2018-03-16T13:14:43.451Z,1.20
2018-03-16T13:17:18.712Z,1.30
2018-03-16T13:19:53.147Z,1.30
2018-03-16T13:22:28.565Z,1.40
2018-03-16T13:25:03.116Z,1.40
2018-03-16T13:27:38.472Z,1.30
2018-03-16T13:30:13.081Z,1.30
2018-03-16T13:32:47.632Z,1.30
2018-03-16T13:35:22.433Z,1.30
2018-03-16T13:37:56.932Z,1.30
2018-03-16T13:40:31.349Z,1.30
2018-03-16T13:43:05.989Z,1.30
2018-03-16T13:45:41.324Z,1.60
2018-03-16T13:48:16.865Z,1.60
2018-03-16T13:50:51.293Z,1.60
2018-03-16T13:53:26.127Z,1.50
2018-03-16T13:56:01.244Z,1.50
2018-03-16T13:58:35.779Z,1.40
2018-03-16T14:01:10.186Z,1.40
2018-03-16T14:03:44.555Z,1.40
2018-03-16T14:06:18.887Z,1.50
2018-03-16T14:08:53.379Z,1.40
2018-03-16T14:11:27.799Z,1.40
2018-03-16T14:14:02.311Z,1.60
2018-03-16T14:16:36.945Z,1.50
2018-03-16T14:19:11.764Z,1.50
2018-03-16T14:21:46.056Z,1.30
2018-03-16T14:24:20.753Z,1.30
2018-03-16T14:26:55.147Z,1.40
2018-03-16T14:29:29.752Z,1.60
2018-03-16T14:32:05.092Z,1.60
2018-03-16T14:34:39.728Z,1.50
2018-03-16T14:37:14.126Z,1.50
2018-03-16T14:39:48.781Z,1.40
2018-03-16T14:42:23.893Z,1.50
2018-03-16T14:44:58.982Z,1.50
2018-03-16T14:47:33.287Z,1.40
2018-03-16T14:50:07.849Z,1.30
2018-03-16T14:52:42.380Z,1.30
2018-03-16T14:55:16.927Z,1.20
2018-03-16T14:57:51.348Z,1.10
2018-03-16T15:00:25.989Z,1.10
2018-03-16T15:03:02.001Z,1.10
2018-03-16T15:05:36.460Z,1.10
2018-03-16T15:08:10.960Z,1.10
2018-03-16T15:10:45.510Z,1.10
2018-03-16T15:13:19.953Z,1.20
2018-03-16T15:15:54.556Z,1.30
2018-03-16T15:18:28.928Z,1.10
2018-03-16T15:21:04.211Z,1.00
2018-03-16T15:23:38.615Z,1.00
2018-03-16T15:26:13.268Z,1.10
2018-03-16T15:28:47.784Z,1.00
2018-03-16T15:31:22.308Z,1.00
2018-03-16T15:33:56.820Z,1.10
2018-03-16T15:36:31.356Z,1.10
2018-03-16T15:39:06.789Z,1.10
2018-03-16T15:41:41.430Z,0.90
2018-03-16T15:44:15.840Z,1.00
2018-03-16T15:46:50.364Z,1.00
2018-03-16T15:49:25.679Z,1.00
2018-03-16T15:52:00.959Z,0.80
2018-03-16T15:54:35.452Z,0.80
2018-03-16T15:57:10.623Z,0.80
2018-03-16T15:59:44.937Z,0.80
2018-03-16T16:02:19.463Z,0.80
2018-03-16T16:04:53.989Z,0.80
2018-03-16T16:07:28.504Z,0.70
2018-03-16T16:10:03.065Z,0.50
2018-03-16T16:12:37.973Z,0.50
2018-03-16T16:15:12.452Z,0.50
2018-03-16T16:17:47.005Z,0.50
2018-03-16T16:20:21.480Z,0.50
2018-03-16T16:22:57.076Z,0.50
2018-03-16T16:25:31.451Z,0.50
2018-03-16T16:28:06.758Z,0.40
2018-03-16T16:30:41.035Z,0.40
2018-03-16T16:33:15.584Z,0.30
2018-03-16T16:35:50.073Z,0.30
2018-03-16T16:38:25.029Z,0.30
2018-03-16T16:40:59.543Z,0.40
2018-03-16T16:43:34.064Z,0.30
2018-03-16T16:46:08.548Z,0.30
2018-03-16T16:48:43.328Z,0.30
2018-03-16T16:51:17.602Z,0.30
2018-03-16T16:53:52.185Z,0.20
2018-03-16T16:56:26.608Z,0.20
2018-03-16T16:59:01.423Z,0.10
2018-03-16T17:01:36.025Z,0.20
2018-03-16T17:04:10.472Z,0.10
2018-03-16T17:06:44.789Z,0.10
2018-03-16T17:09:19.308Z,0.10
2018-03-16T17:11:53.812Z,0.00
2018-03-16T17:14:28.561Z,0.00
2018-03-16T17:17:03.188Z,-0.10
2018-03-16T17:19:37.821Z,-0.10
2018-03-16T17:22:13.780Z,-0.10
2018-03-16T17:24:48.237Z,-0.10
2018-03-16T17:27:22.738Z,-0.10
2018-03-16T17:29:58.066Z,-0.10
2018-03-16T17:32:32.520Z,-0.20
2018-03-16T17:35:06.905Z,-0.20
2018-03-16T17:37:41.284Z,-0.20
2018-03-16T17:40:15.846Z,-0.20
2018-03-16T17:42:50.472Z,-0.30
2018-03-16T17:45:24.840Z,-0.30
2018-03-16T17:47:59.114Z,-0.40
2018-03-16T17:50:33.723Z,-0.40
2018-03-16T17:53:08.160Z,-0.40
2018-03-16T17:55:43.388Z,-0.50
2018-03-16T17:58:17.715Z,-0.50
2018-03-16T18:00:52.256Z,-0.40
2018-03-16T18:03:26.846Z,-0.50
2018-03-16T18:06:01.589Z,-0.50
2018-03-16T18:08:35.879Z,-0.50
2018-03-16T18:11:10.839Z,-0.50
2018-03-16T18:13:45.564Z,-0.50
2018-03-16T18:16:20.303Z,-0.60
2018-03-16T18:18:54.938Z,-0.60
2018-03-16T18:21:29.477Z,-0.60
2018-03-16T18:24:04.244Z,-0.70
2018-03-16T18:26:39.631Z,-0.70
2018-03-16T18:29:15.571Z,-0.70
2018-03-16T18:31:50.101Z,-0.70
2018-03-16T18:34:24.348Z,-0.70
2018-03-16T18:36:58.961Z,-0.80
2018-03-16T18:39:33.472Z,-0.90
2018-03-16T18:42:08.117Z,-0.90
2018-03-16T18:44:42.696Z,-0.90
2018-03-16T18:47:17.258Z,-1.00
2018-03-16T18:49:51.882Z,-0.90
2018-03-16T18:52:27.930Z,-0.90
2018-03-16T18:55:03.680Z,-0.90
2018-03-16T18:57:38.297Z,-0.90
2018-03-16T19:00:12.704Z,-0.90
2018-03-16T19:02:47.343Z,-0.90
2018-03-16T19:05:21.920Z,-1.00
2018-03-16T19:07:56.492Z,-1.00
2018-03-16T19:10:30.827Z,-1.00
2018-03-16T19:13:05.315Z,-1.00
2018-03-16T19:15:40.487Z,-1.10
2018-03-16T19:18:16.138Z,-1.10
2018-03-16T19:20:51.444Z,-1.20
2018-03-16T19:23:27.754Z,-1.20
2018-03-16T19:26:02.428Z,-1.20
2018-03-16T19:28:37.715Z,-1.20
2018-03-16T19:31:12.023Z,-1.20
2018-03-16T19:33:46.948Z,-1.20
2018-03-16T19:36:21.976Z,-1.20
2018-03-16T19:38:58.275Z,-1.30
2018-03-16T19:41:32.782Z,-1.30
2018-03-16T19:44:07.501Z,-1.30
2018-03-16T19:46:41.939Z,-1.30
2018-03-16T19:49:16.557Z,-1.30
2018-03-16T19:51:51.155Z,-1.30
2018-03-16T19:54:25.812Z,-1.30
2018-03-16T19:57:00.476Z,-1.30
2018-03-16T19:59:35.461Z,-1.20
2018-03-16T20:02:09.779Z,-1.30
2018-03-16T20:04:45.349Z,-1.20
2018-03-16T20:07:20.535Z,-1.20
2018-03-16T20:09:55.193Z,-1.30
2018-03-16T20:12:30.469Z,-1.30
2018-03-16T20:15:06.110Z,-1.30
2018-03-16T20:17:40.912Z,-1.30
2018-03-16T20:20:15.544Z,-1.30
2018-03-16T20:22:50.151Z,-1.40
2018-03-16T20:25:24.992Z,-1.40
2018-03-16T20:27:59.260Z,-1.40
2018-03-16T20:30:33.834Z,-1.40
2018-03-16T20:33:08.159Z,-1.40
2018-03-16T20:35:44.140Z,-1.50
2018-03-16T20:38:18.612Z,-1.40
2018-03-16T20:40:54.182Z,-1.40
2018-03-16T20:43:28.603Z,-1.50
2018-03-16T20:46:04.129Z,-1.60
2018-03-16T20:48:38.540Z,-1.60
2018-03-16T20:51:13.128Z,-1.60
2018-03-16T20:53:48.280Z,-1.60
2018-03-16T20:56:22.755Z,-1.60
2018-03-16T20:58:57.242Z,-1.60
2018-03-16T21:01:33.244Z,-1.50
2018-03-16T21:04:07.664Z,-1.50
2018-03-16T21:06:42.073Z,-1.50
2018-03-16T21:09:16.418Z,-1.50
2018-03-16T21:11:50.797Z,-1.50
2018-03-16T21:14:25.340Z,-1.50
2018-03-16T21:17:01.293Z,-1.40
2018-03-16T21:19:35.849Z,-1.50
2018-03-16T21:22:10.365Z,-1.40
2018-03-16T21:24:44.910Z,-1.40
2018-03-16T21:27:20.032Z,-1.40
2018-03-16T21:29:54.408Z,-1.50
2018-03-16T21:32:28.945Z,-1.40
2018-03-16T21:35:03.520Z,-1.50
2018-03-16T21:37:37.975Z,-1.50
2018-03-16T21:40:12.524Z,-1.50
2018-03-16T21:42:47.038Z,-1.50
2018-03-16T21:45:22.224Z,-1.50
2018-03-16T21:47:56.845Z,-1.50
2018-03-16T21:50:31.379Z,-1.60
2018-03-16T21:53:05.979Z,-1.60
2018-03-16T21:55:40.588Z,-1.60
2018-03-16T21:58:15.439Z,-1.60
2018-03-16T22:00:49.978Z,-1.60
2018-03-16T22:03:24.565Z,-1.60
2018-03-16T22:05:59.520Z,-1.60
2018-03-16T22:08:34.628Z,-1.60
2018-03-16T22:11:09.203Z,-1.60
2018-03-16T22:13:43.823Z,-1.70
2018-03-16T22:16:18.542Z,-1.70
2018-03-16T22:18:53.152Z,-1.60
2018-03-16T22:21:27.633Z,-1.60
2018-03-16T22:24:02.488Z,-1.60
2018-03-16T22:26:37.021Z,-1.50
2018-03-16T22:29:11.527Z,-1.60
2018-03-16T22:31:45.864Z,-1.60
2018-03-16T22:34:20.579Z,-1.50
2018-03-16T22:36:55.100Z,-1.50
2018-03-16T22:39:29.624Z,-1.50
2018-03-16T22:42:04.151Z,-1.60
2018-03-16T22:44:38.669Z,-1.60
2018-03-16T22:47:13.202Z,-1.60
2018-03-16T22:49:47.628Z,-1.60
2018-03-16T22:52:22.144Z,-1.60
2018-03-16T22:54:57.716Z,-1.70
2018-03-16T22:57:32.334Z,-1.60
2018-03-16T23:00:08.871Z,-1.60
2018-03-16T23:02:43.262Z,-1.60
2018-03-16T23:05:17.832Z,-1.70
2018-03-16T23:07:53.176Z,-1.80
2018-03-16T23:10:27.896Z,-1.90
2018-03-16T23:13:02.974Z,-1.80
2018-03-16T23:15:37.560Z,-1.90
2018-03-16T23:18:12.115Z,-1.90
2018-03-16T23:20:46.810Z,-2.00
2018-03-16T23:23:21.350Z,-2.10
2018-03-16T23:25:55.858Z,-2.10
2018-03-16T23:28:31.199Z,-2.00
2018-03-16T23:31:06.542Z,-2.00
2018-03-16T23:33:41.868Z,-2.10
2018-03-16T23:36:16.408Z,-2.20
2018-03-16T23:38:50.901Z,-2.20
2018-03-16T23:41:26.692Z,-2.10
2018-03-16T23:44:01.332Z,-2.10
2018-03-16T23:46:36.001Z,-2.10
2018-03-16T23:49:10.461Z,-2.10
2018-03-16T23:51:44.975Z,-2.20
2018-03-16T23:54:20.427Z,-2.30
2018-03-16T23:56:54.848Z,-2.30
2018-03-16T23:59:30.249Z,-2.30
